Time;durP1;ratioP1;P1;durP2;ratioP2;P2;SDS_P1;SDS_P2;PMS_P1;PMS_P2;Temp;Humidity;BMP_temperature;BMP_pressure;BME280_temperature;BME280_humidity;BME280_pressure;Samples;Min_cycle;Max_cycle;Signal;HPM_P1;HPM_P2
2022/01/17 00:00:34;;;;;;;;;;;;;;;;;;2107078;28;19920;-48
2022/01/17 00:01:35;;;;;;;;;;;;;;;;;;2107238;28;19919;-47
2022/01/17 00:02:36;;;;;;;;;;;;;;;;;;2105955;28;19921;-47
2022/01/17 00:03:37;;;;;;;;;;;;;;;;;;2107143;28;20369;-48
2022/01/17 00:04:38;;;;;;;;;;;;;;;;;;2106636;28;19931;-48
2022/01/17 00:05:39;;;;;;;;;;;;;;;;;;2110688;28;19928;-44
2022/01/17 00:06:41;;;;;;;;;;;;;;;;;;2115525;28;20380;-44
2022/01/17 00:07:42;;;;;;;;;;;;;;;;;;2113597;28;19963;-49
2022/01/17 00:08:44;;;;;;;;;;;;;;;;;;2105779;28;19927;-48
2022/01/17 00:09:45;;;;;;;;;;;;;;;;;;2107237;28;19962;-49
2022/01/17 00:10:46;;;;;;;;;;;;;;;;;;2105876;28;19920;-47
2022/01/17 00:11:48;;;;;;;;;;;;;;;;;;2114062;28;20312;-47
2022/01/17 00:12:51;;;;;;;;;;;;;;;;;;2115698;28;19919;-47
2022/01/17 00:13:52;;;;;;;;;;;;;;;;;;2106446;28;20006;-47
2022/01/17 00:14:56;;;;;;;;;;;;;;;;;;2106072;28;19920;-48
2022/01/17 00:16:02;;;;;;;;;;;;;;;;;;2106429;28;20471;-47
2022/01/17 00:17:10;;;;;;;;;;;;;;;;;;2106426;28;20597;-48
2022/01/17 00:18:27;;;;;;;;;;;;;;;;;;2107091;28;19920;-47
2022/01/17 00:19:36;;;;;;;;;;;;;;;;;;2110390;28;19930;-48
2022/01/17 00:20:37;;;;;;;;;;;;;;;;;;2115475;28;19919;-48
2022/01/17 00:21:41;;;;;;;;;;;;;;;;;;2107282;28;19927;-48
2022/01/17 00:22:41;;;;;;;;;;;;;;;;;;2106198;28;20053;-49
2022/01/17 00:23:42;;;;;;;;;;;;;;;;;;2107146;28;19999;-48
2022/01/17 00:24:43;;;;;;;;;;;;;;;;;;2106904;28;19920;-48
2022/01/17 00:25:44;;;;;;;;;;;;;;;;;;2115605;28;20265;-48
2022/01/17 00:26:46;;;;;;;;;;;;;;;;;;2114812;28;19920;-50
2022/01/17 00:27:48;;;;;;;;;;;;;;;;;;2106284;28;19935;-50
2022/01/17 00:28:49;;;;;;;;;;;;;;;;;;2106998;28;20424;-48
2022/01/17 00:29:50;;;;;;;;;;;;;;;;;;2104824;28;19927;-49
2022/01/17 00:30:50;;;;;;;;;;;;;;;;;;2111385;28;19919;-47
2022/01/17 00:31:51;;;;;;;;;;;;;;;;;;2115273;28;19926;-50
2022/01/17 00:32:52;;;;;;;;;;;;;;;;;;2109091;28;20346;-47
2022/01/17 00:33:53;;;;;;;;;;;;;;;;;;2113584;28;20320;-48
2022/01/17 00:34:54;;;;;;;;;;;;;;;;;;2115340;28;19926;-47
2022/01/17 00:35:55;;;;;;;;;;;;;;;;;;2108344;28;19920;-50
2022/01/17 00:36:56;;;;;;;;;;;;;;;;;;2115248;28;20043;-48
2022/01/17 00:37:57;;;;;;;;;;;;;;;;;;2115468;28;20276;-49
2022/01/17 00:38:57;;;;;;;;;;;;;;;;;;2108210;28;19928;-47
2022/01/17 00:39:59;;;;;;;;;;;;;;;;;;2114184;28;19923;-48
2022/01/17 00:41:00;;;;;;;;;;;;;;;;;;2106028;28;20058;-50
2022/01/17 00:42:00;;;;;;;;;;;;;;;;;;2108916;28;20380;-48
2022/01/17 00:43:01;;;;;;;;;;;;;;;;;;2115297;28;19920;-48
2022/01/17 00:44:03;;;;;;;;;;;;;;;;;;2112280;28;19955;-49
2022/01/17 00:45:07;;;;;;;;;;;;;;;;;;2111747;28;19946;-48
2022/01/17 00:46:09;;;;;;;;;;;;;;;;;;2115006;28;20261;-51
2022/01/17 00:47:10;;;;;;;;;;;;;;;;;;2107200;28;19970;-47
2022/01/17 00:48:11;;;;;;;;;;;;;;;;;;2099298;28;20335;-47
2022/01/17 00:49:11;;;;;;;;;;;;;;;;;;2098408;28;20266;-47
2022/01/17 00:50:12;;;;;;;;;;;;;;;;;;2103915;28;19920;-49
2022/01/17 00:51:13;;;;;;;;;;;;;;;;;;2106849;28;19920;-47
2022/01/17 00:52:14;;;;;;;;;;;;;;;;;;2107043;28;19919;-47
2022/01/17 00:53:15;;;;;;;;;;;;;;;;;;2108772;28;19920;-48
2022/01/17 00:54:16;;;;;;;;;;;;;;;;;;2115217;28;19920;-48
2022/01/17 00:55:17;;;;;;;;;;;;;;;;;;2113017;28;20373;-48
2022/01/17 00:56:17;;;;;;;;;;;;;;;;;;2105842;28;19927;-47
2022/01/17 00:57:18;;;;;;;;;;;;;;;;;;2106744;28;19923;-47
2022/01/17 00:58:19;;;;;;;;;;;;;;;;;;2105843;28;19935;-47
2022/01/17 00:59:20;;;;;;;;;;;;;;;;;;2112605;28;19920;-47
2022/01/17 01:00:21;;;;;;;;;;;;;;;;;;2115171;28;19919;-47
2022/01/17 01:01:22;;;;;;;;;;;;;;;;;;2107290;28;19920;-47
2022/01/17 01:02:23;;;;;;;;;;;;;;;;;;2098424;28;19921;-47
2022/01/17 01:03:24;;;;;;;;;;;;;;;;;;2098662;28;20442;-47
2022/01/17 01:04:25;;;;;;;;;;;;;;;;;;2106009;28;19924;-48
2022/01/17 01:05:26;;;;;;;;;;;;;;;;;;2098349;28;20286;-46
2022/01/17 01:06:27;;;;;;;;;;;;;;;;;;2101095;28;19926;-48
2022/01/17 01:07:28;;;;;;;;;;;;;;;;;;2105261;28;19920;-47
2022/01/17 01:08:28;;;;;;;;;;;;;;;;;;2106826;28;19923;-47
2022/01/17 01:09:35;;;;;;;;;;;;;;;;;;2103448;28;20070;-49
2022/01/17 01:10:35;;;;;;;;;;;;;;;;;;2105898;28;20010;-47
2022/01/17 01:11:36;;;;;;;;;;;;;;;;;;2106515;28;19919;-49
2022/01/17 01:12:37;;;;;;;;;;;;;;;;;;2105370;28;19926;-50
2022/01/17 01:13:38;;;;;;;;;;;;;;;;;;2106780;28;20379;-51
2022/01/17 01:14:41;;;;;;;;;;;;;;;;;;2106273;28;19931;-51
2022/01/17 01:15:57;;;;;;;;;;;;;;;;;;2105043;28;20023;-47
2022/01/17 01:17:06;;;;;;;;;;;;;;;;;;2106545;28;19977;-47
2022/01/17 01:18:14;;;;;;;;;;;;;;;;;;2105688;28;20325;-50
2022/01/17 01:20:49;;;;;;;;;;;;;;;;;;2098665;28;20077;-48
2022/01/17 01:22:10;;;;;;;;;;;;;;;;;;2105502;28;19969;-47
2022/01/17 01:28:29;;;;;;;;;;;;;;;;;;2115000;28;20014;-47
2022/01/17 01:29:29;;;;;;;;;;;;;;;;;;2107025;28;19927;-49
2022/01/17 01:30:32;;;;;;;;;;;;;;;;;;2114908;28;19919;-49
2022/01/17 01:31:42;;;;;;;;;;;;;;;;;;2115074;28;19919;-47
2022/01/17 01:32:48;;;;;;;;;;;;;;;;;;2101855;28;19928;-48
2022/01/17 01:33:53;;;;;;;;;;;;;;;;;;2098308;28;19924;-47
2022/01/17 01:34:57;;;;;;;;;;;;;;;;;;2100869;28;20425;-48
2022/01/17 01:36:02;;;;;;;;;;;;;;;;;;2105753;28;20006;-49
2022/01/17 01:37:03;;;;;;;;;;;;;;;;;;2106432;28;20400;-50
2022/01/17 01:38:04;;;;;;;;;;;;;;;;;;2105496;28;20014;-49
2022/01/17 01:39:05;;;;;;;;;;;;;;;;;;2106514;28;19924;-48
2022/01/17 01:40:06;;;;;;;;;;;;;;;;;;2106423;28;19923;-48
2022/01/17 01:41:07;;;;;;;;;;;;;;;;;;2105199;28;19923;-49
2022/01/17 01:42:07;;;;;;;;;;;;;;;;;;2106419;28;19920;-48
2022/01/17 01:43:08;;;;;;;;;;;;;;;;;;2106139;28;19977;-47
2022/01/17 01:44:09;;;;;;;;;;;;;;;;;;2109066;28;20277;-47
2022/01/17 01:45:12;;;;;;;;;;;;;;;;;;2115003;28;20288;-49
2022/01/17 01:46:17;;;;;;;;;;;;;;;;;;2110563;28;20049;-49
2022/01/17 01:47:18;;;;;;;;;;;;;;;;;;2105756;28;19920;-47
2022/01/17 01:48:19;;;;;;;;;;;;;;;;;;2106396;28;19931;-48
2022/01/17 01:49:20;;;;;;;;;;;;;;;;;;2105461;28;20419;-48
2022/01/17 01:50:22;;;;;;;;;;;;;;;;;;2115068;28;19920;-45
2022/01/17 01:51:22;;;;;;;;;;;;;;;;;;2114822;28;19926;-45
2022/01/17 01:52:23;;;;;;;;;;;;;;;;;;2107763;28;19935;-44
2022/01/17 01:53:25;;;;;;;;;;;;;;;;;;2114993;28;19923;-45
2022/01/17 01:54:26;;;;;;;;;;;;;;;;;;2112399;28;20357;-45
2022/01/17 01:55:27;;;;;;;;;;;;;;;;;;2104371;28;19942;-45
2022/01/17 01:56:27;;;;;;;;;;;;;;;;;;2106463;28;19919;-45
2022/01/17 01:57:28;;;;;;;;;;;;;;;;;;2105684;28;19924;-44
2022/01/17 01:58:29;;;;;;;;;;;;;;;;;;2101327;28;20369;-44
2022/01/17 01:59:30;;;;;;;;;;;;;;;;;;2098060;28;19966;-44
2022/01/17 02:00:31;;;;;;;;;;;;;;;;;;2101925;28;20380;-45
2022/01/17 02:01:32;;;;;;;;;;;;;;;;;;2105939;28;20404;-45
2022/01/17 02:02:33;;;;;;;;;;;;;;;;;;2106451;28;19927;-44
2022/01/17 02:03:34;;;;;;;;;;;;;;;;;;2104200;28;20392;-44
2022/01/17 02:04:35;;;;;;;;;;;;;;;;;;2114776;28;19923;-45
2022/01/17 02:05:35;;;;;;;;;;;;;;;;;;2114781;28;19927;-44
2022/01/17 02:06:36;;;;;;;;;;;;;;;;;;2106731;28;19927;-45
2022/01/17 02:07:39;;;;;;;;;;;;;;;;;;2106488;28;20288;-45
2022/01/17 02:08:39;;;;;;;;;;;;;;;;;;2104197;28;20365;-45
2022/01/17 02:09:42;;;;;;;;;;;;;;;;;;2105463;28;19928;-45
2022/01/17 02:10:42;;;;;;;;;;;;;;;;;;2106302;28;19998;-44
2022/01/17 02:11:43;;;;;;;;;;;;;;;;;;2104842;28;20247;-45
2022/01/17 02:12:44;;;;;;;;;;;;;;;;;;2107262;28;20331;-45
2022/01/17 02:13:46;;;;;;;;;;;;;;;;;;2106552;28;20297;-46
2022/01/17 02:14:47;;;;;;;;;;;;;;;;;;2105416;28;19928;-46
2022/01/17 02:15:49;;;;;;;;;;;;;;;;;;2098219;28;20215;-45
2022/01/17 02:16:51;;;;;;;;;;;;;;;;;;2097964;28;19924;-45
2022/01/17 02:17:54;;;;;;;;;;;;;;;;;;2105839;28;20015;-45
2022/01/17 02:18:55;;;;;;;;;;;;;;;;;;2114748;28;19965;-44
2022/01/17 02:20:04;;;;;;;;;;;;;;;;;;2113225;28;19984;-44
2022/01/17 02:21:18;;;;;;;;;;;;;;;;;;2101000;28;19959;-45
2022/01/17 02:22:19;;;;;;;;;;;;;;;;;;2097908;28;19930;-45
2022/01/17 02:23:20;;;;;;;;;;;;;;;;;;2101246;28;19927;-45
2022/01/17 02:24:21;;;;;;;;;;;;;;;;;;2106050;28;19920;-45
2022/01/17 02:25:21;;;;;;;;;;;;;;;;;;2106412;28;19920;-46
2022/01/17 02:26:22;;;;;;;;;;;;;;;;;;2104810;28;19920;-44
2022/01/17 02:27:23;;;;;;;;;;;;;;;;;;2106224;28;19927;-44
2022/01/17 02:28:24;;;;;;;;;;;;;;;;;;2105206;28;19923;-44
2022/01/17 02:29:26;;;;;;;;;;;;;;;;;;2108351;28;20359;-46
2022/01/17 02:30:31;;;;;;;;;;;;;;;;;;2114715;28;20007;-45
2022/01/17 02:31:32;;;;;;;;;;;;;;;;;;2111304;28;19920;-45
2022/01/17 02:32:33;;;;;;;;;;;;;;;;;;2101380;28;19927;-46
2022/01/17 02:33:34;;;;;;;;;;;;;;;;;;2097977;28;19920;-47
2022/01/17 02:34:35;;;;;;;;;;;;;;;;;;2100885;28;19920;-45
2022/01/17 02:35:35;;;;;;;;;;;;;;;;;;2114485;28;19920;-45
2022/01/17 02:36:36;;;;;;;;;;;;;;;;;;2114926;28;19920;-48
2022/01/17 02:37:37;;;;;;;;;;;;;;;;;;2105950;28;20388;-50
2022/01/17 02:38:38;;;;;;;;;;;;;;;;;;2097829;28;19943;-48
2022/01/17 02:39:39;;;;;;;;;;;;;;;;;;2097765;28;19921;-48
2022/01/17 02:40:40;;;;;;;;;;;;;;;;;;2106809;28;19924;-47
2022/01/17 02:41:42;;;;;;;;;;;;;;;;;;2114533;28;19920;-47
2022/01/17 02:42:45;;;;;;;;;;;;;;;;;;2112308;28;20391;-51
2022/01/17 02:43:47;;;;;;;;;;;;;;;;;;2104762;28;20486;-50
2022/01/17 02:44:50;;;;;;;;;;;;;;;;;;2106322;28;19919;-48
2022/01/17 02:47:10;;;;;;;;;;;;;;;;;;2097696;28;20516;-47
2022/01/17 02:48:11;;;;;;;;;;;;;;;;;;2097564;28;20357;-47
2022/01/17 02:49:12;;;;;;;;;;;;;;;;;;2108298;28;20101;-47
2022/01/17 02:50:12;;;;;;;;;;;;;;;;;;2114569;28;19927;-50
2022/01/17 02:51:13;;;;;;;;;;;;;;;;;;2110286;28;20380;-47
2022/01/17 02:52:14;;;;;;;;;;;;;;;;;;2101273;28;19921;-47
2022/01/17 02:53:16;;;;;;;;;;;;;;;;;;2097830;28;19921;-46
2022/01/17 02:54:16;;;;;;;;;;;;;;;;;;2099346;28;20326;-48
2022/01/17 02:55:17;;;;;;;;;;;;;;;;;;2099512;28;20277;-48
2022/01/17 02:56:18;;;;;;;;;;;;;;;;;;2097754;28;19926;-47
2022/01/17 02:57:19;;;;;;;;;;;;;;;;;;2102435;28;19974;-49
2022/01/17 02:58:20;;;;;;;;;;;;;;;;;;2097775;28;19926;-47
2022/01/17 02:59:21;;;;;;;;;;;;;;;;;;2097773;28;20007;-50
2022/01/17 03:00:21;;;;;;;;;;;;;;;;;;2103893;28;19925;-47
2022/01/17 03:01:22;;;;;;;;;;;;;;;;;;2114452;28;19969;-47
2022/01/17 03:02:23;;;;;;;;;;;;;;;;;;2112894;28;19919;-48
2022/01/17 03:03:25;;;;;;;;;;;;;;;;;;2103767;28;19924;-48
2022/01/17 03:04:28;;;;;;;;;;;;;;;;;;2097682;28;20274;-48
2022/01/17 03:05:28;;;;;;;;;;;;;;;;;;2099777;28;19924;-47
2022/01/17 03:06:29;;;;;;;;;;;;;;;;;;2106509;28;20410;-47
2022/01/17 03:07:30;;;;;;;;;;;;;;;;;;2106098;28;19969;-48
2022/01/17 03:08:31;;;;;;;;;;;;;;;;;;2102779;28;19920;-49
2022/01/17 03:09:41;;;;;;;;;;;;;;;;;;2113952;28;19919;-48
2022/01/17 03:10:43;;;;;;;;;;;;;;;;;;2116179;28;20011;-46
2022/01/17 03:11:44;;;;;;;;;;;;;;;;;;2107044;28;19920;-45
2022/01/17 03:12:45;;;;;;;;;;;;;;;;;;2099163;28;19921;-45
2022/01/17 03:13:47;;;;;;;;;;;;;;;;;;2099560;28;19920;-45
2022/01/17 03:14:48;;;;;;;;;;;;;;;;;;2107850;28;20003;-44
2022/01/17 03:15:53;;;;;;;;;;;;;;;;;;2107385;28;20297;-45
2022/01/17 03:16:56;;;;;;;;;;;;;;;;;;2106651;28;19920;-44
2022/01/17 03:17:56;;;;;;;;;;;;;;;;;;2114623;28;20002;-44
2022/01/17 03:18:57;;;;;;;;;;;;;;;;;;2115994;28;20019;-44
2022/01/17 03:19:58;;;;;;;;;;;;;;;;;;2107960;28;19920;-44
2022/01/17 03:20:59;;;;;;;;;;;;;;;;;;2099216;28;19924;-44
2022/01/17 03:22:00;;;;;;;;;;;;;;;;;;2098973;28;19921;-46
2022/01/17 03:23:00;;;;;;;;;;;;;;;;;;2106159;28;19920;-45
2022/01/17 03:24:01;;;;;;;;;;;;;;;;;;2115862;28;19951;-44
2022/01/17 03:25:02;;;;;;;;;;;;;;;;;;2114507;28;20003;-44
2022/01/17 03:26:03;;;;;;;;;;;;;;;;;;2101861;28;19920;-47
2022/01/17 03:27:04;;;;;;;;;;;;;;;;;;2098918;28;19921;-45
2022/01/17 03:28:05;;;;;;;;;;;;;;;;;;2103953;28;19968;-44
2022/01/17 03:29:06;;;;;;;;;;;;;;;;;;2100323;28;19924;-44
2022/01/17 03:30:06;;;;;;;;;;;;;;;;;;2098952;28;19973;-44
2022/01/17 03:31:07;;;;;;;;;;;;;;;;;;2103878;28;19973;-45
2022/01/17 03:32:08;;;;;;;;;;;;;;;;;;2107261;28;19926;-46
2022/01/17 03:33:09;;;;;;;;;;;;;;;;;;2107472;28;20400;-44
2022/01/17 03:34:10;;;;;;;;;;;;;;;;;;2102672;28;20383;-45
2022/01/17 03:35:10;;;;;;;;;;;;;;;;;;2099062;28;19970;-45
2022/01/17 03:36:11;;;;;;;;;;;;;;;;;;2099555;28;19920;-44
2022/01/17 03:37:12;;;;;;;;;;;;;;;;;;2106678;28;19920;-49
2022/01/17 03:38:13;;;;;;;;;;;;;;;;;;2107313;28;19920;-44
2022/01/17 03:39:14;;;;;;;;;;;;;;;;;;2107557;28;19928;-45
2022/01/17 03:40:15;;;;;;;;;;;;;;;;;;2105747;28;19969;-45
2022/01/17 03:41:15;;;;;;;;;;;;;;;;;;2107401;28;20361;-45
2022/01/17 03:42:18;;;;;;;;;;;;;;;;;;2105077;28;19926;-46
2022/01/17 03:43:19;;;;;;;;;;;;;;;;;;2099862;28;19924;-45
2022/01/17 03:44:20;;;;;;;;;;;;;;;;;;2098989;28;19924;-45
2022/01/17 03:45:20;;;;;;;;;;;;;;;;;;2105096;28;19931;-45
2022/01/17 03:46:21;;;;;;;;;;;;;;;;;;2115782;28;19919;-45
2022/01/17 03:47:22;;;;;;;;;;;;;;;;;;2115779;28;19919;-44
2022/01/17 03:48:23;;;;;;;;;;;;;;;;;;2106042;28;20284;-44
2022/01/17 03:49:24;;;;;;;;;;;;;;;;;;2107278;28;20600;-45
2022/01/17 03:50:25;;;;;;;;;;;;;;;;;;2106778;28;19932;-45
2022/01/17 03:51:26;;;;;;;;;;;;;;;;;;2106394;28;20349;-44
2022/01/17 03:52:26;;;;;;;;;;;;;;;;;;2107422;28;19942;-44
2022/01/17 03:53:28;;;;;;;;;;;;;;;;;;2105167;28;20183;-44
2022/01/17 03:54:31;;;;;;;;;;;;;;;;;;2112848;28;20372;-46
2022/01/17 03:55:34;;;;;;;;;;;;;;;;;;2115769;28;20014;-46
2022/01/17 03:56:35;;;;;;;;;;;;;;;;;;2110652;28;20370;-45
2022/01/17 03:57:36;;;;;;;;;;;;;;;;;;2098833;28;19928;-45
2022/01/17 03:58:37;;;;;;;;;;;;;;;;;;2098730;28;20431;-46
2022/01/17 03:59:37;;;;;;;;;;;;;;;;;;2104436;28;19950;-45
2022/01/17 04:00:38;;;;;;;;;;;;;;;;;;2098878;28;20389;-45
2022/01/17 04:01:40;;;;;;;;;;;;;;;;;;2099475;28;19924;-44
2022/01/17 04:02:41;;;;;;;;;;;;;;;;;;2102404;28;19920;-44
2022/01/17 04:03:42;;;;;;;;;;;;;;;;;;2099137;28;19920;-48
2022/01/17 04:04:43;;;;;;;;;;;;;;;;;;2100491;28;20380;-48
2022/01/17 04:05:44;;;;;;;;;;;;;;;;;;2112498;28;19920;-47
2022/01/17 04:06:44;;;;;;;;;;;;;;;;;;2115675;28;20261;-47
2022/01/17 04:07:45;;;;;;;;;;;;;;;;;;2110430;28;20331;-48
2022/01/17 04:08:46;;;;;;;;;;;;;;;;;;2106833;28;19923;-47
2022/01/17 04:09:47;;;;;;;;;;;;;;;;;;2107187;28;19920;-49
2022/01/17 04:10:48;;;;;;;;;;;;;;;;;;2105155;28;19926;-47
2022/01/17 04:11:49;;;;;;;;;;;;;;;;;;2115627;28;19924;-47
2022/01/17 04:12:49;;;;;;;;;;;;;;;;;;2115616;28;20288;-48
2022/01/17 04:13:50;;;;;;;;;;;;;;;;;;2106322;28;19920;-47
2022/01/17 04:14:54;;;;;;;;;;;;;;;;;;2107216;28;19920;-49
2022/01/17 04:15:55;;;;;;;;;;;;;;;;;;2106730;28;20012;-48
2022/01/17 04:16:56;;;;;;;;;;;;;;;;;;2106058;28;19972;-48
2022/01/17 04:17:57;;;;;;;;;;;;;;;;;;2107093;28;19924;-48
2022/01/17 04:18:58;;;;;;;;;;;;;;;;;;2107295;28;19920;-47
2022/01/17 04:20:03;;;;;;;;;;;;;;;;;;2105707;28;19924;-47
2022/01/17 04:21:04;;;;;;;;;;;;;;;;;;2107058;28;19955;-47
2022/01/17 04:22:05;;;;;;;;;;;;;;;;;;2107034;28;19950;-49
2022/01/17 04:23:06;;;;;;;;;;;;;;;;;;2098788;28;19970;-49
2022/01/17 04:24:07;;;;;;;;;;;;;;;;;;2098806;28;20015;-48
2022/01/17 04:25:08;;;;;;;;;;;;;;;;;;2105117;28;20300;-48
2022/01/17 04:26:09;;;;;;;;;;;;;;;;;;2107099;28;19924;-49
2022/01/17 04:27:09;;;;;;;;;;;;;;;;;;2105957;28;19927;-48
2022/01/17 04:28:10;;;;;;;;;;;;;;;;;;2109272;28;19919;-47
2022/01/17 04:29:11;;;;;;;;;;;;;;;;;;2115419;28;19972;-48
2022/01/17 04:30:13;;;;;;;;;;;;;;;;;;2110638;28;19919;-48
2022/01/17 04:31:14;;;;;;;;;;;;;;;;;;2112160;28;19950;-48
2022/01/17 04:32:15;;;;;;;;;;;;;;;;;;2115488;28;19949;-48
2022/01/17 04:33:16;;;;;;;;;;;;;;;;;;2108867;28;19926;-47
2022/01/17 04:34:17;;;;;;;;;;;;;;;;;;2106821;28;20078;-48
2022/01/17 04:35:20;;;;;;;;;;;;;;;;;;2106965;28;19924;-48
2022/01/17 04:36:21;;;;;;;;;;;;;;;;;;2103688;28;20007;-48
2022/01/17 04:37:22;;;;;;;;;;;;;;;;;;2098660;28;19921;-48
2022/01/17 04:38:23;;;;;;;;;;;;;;;;;;2098832;28;19924;-47
2022/01/17 04:39:23;;;;;;;;;;;;;;;;;;2106852;28;19920;-47
2022/01/17 04:40:24;;;;;;;;;;;;;;;;;;2103251;28;20369;-44
2022/01/17 04:41:35;;;;;;;;;;;;;;;;;;2104792;28;19927;-45
2022/01/17 04:42:43;;;;;;;;;;;;;;;;;;2106145;28;20012;-45
2022/01/17 04:43:56;;;;;;;;;;;;;;;;;;2106933;28;20327;-44
2022/01/17 04:45:11;;;;;;;;;;;;;;;;;;2105985;28;19920;-45
2022/01/17 04:46:12;;;;;;;;;;;;;;;;;;2106791;28;20045;-45
2022/01/17 04:47:13;;;;;;;;;;;;;;;;;;2104801;28;20236;-45
2022/01/17 04:48:14;;;;;;;;;;;;;;;;;;2111736;28;19920;-45
2022/01/17 04:49:14;;;;;;;;;;;;;;;;;;2115342;28;19920;-44
2022/01/17 04:50:15;;;;;;;;;;;;;;;;;;2108470;28;19924;-45
2022/01/17 04:51:16;;;;;;;;;;;;;;;;;;2099784;28;19920;-45
2022/01/17 04:52:17;;;;;;;;;;;;;;;;;;2098433;28;19967;-46
2022/01/17 04:53:20;;;;;;;;;;;;;;;;;;2101855;28;20011;-46
2022/01/17 04:54:39;;;;;;;;;;;;;;;;;;2098398;28;20441;-45
2022/01/17 04:55:40;;;;;;;;;;;;;;;;;;2099706;28;19920;-44
2022/01/17 04:56:41;;;;;;;;;;;;;;;;;;2111174;28;19964;-44
2022/01/17 04:57:42;;;;;;;;;;;;;;;;;;2115146;28;19919;-45
2022/01/17 04:58:42;;;;;;;;;;;;;;;;;;2104417;28;20331;-45
2022/01/17 04:59:44;;;;;;;;;;;;;;;;;;2100238;28;19920;-46
2022/01/17 05:00:46;;;;;;;;;;;;;;;;;;2098422;28;19960;-49
2022/01/17 05:01:47;;;;;;;;;;;;;;;;;;2101695;28;19981;-47
2022/01/17 05:02:48;;;;;;;;;;;;;;;;;;2098465;28;19920;-46
2022/01/17 05:03:49;;;;;;;;;;;;;;;;;;2098635;28;19920;-46
2022/01/17 05:04:51;;;;;;;;;;;;;;;;;;2102039;28;19908;-49
2022/01/17 05:05:51;;;;;;;;;;;;;;;;;;2098474;28;19920;-48
2022/01/17 05:06:52;;;;;;;;;;;;;;;;;;2098053;28;19920;-48
2022/01/17 05:07:53;;;;;;;;;;;;;;;;;;2109765;28;19927;-47
2022/01/17 05:08:54;;;;;;;;;;;;;;;;;;2115282;28;19927;-47
2022/01/17 05:09:55;;;;;;;;;;;;;;;;;;2111292;28;20277;-48
2022/01/17 05:10:56;;;;;;;;;;;;;;;;;;2113059;28;19920;-48
2022/01/17 05:11:57;;;;;;;;;;;;;;;;;;2115054;28;19920;-48
2022/01/17 05:12:57;;;;;;;;;;;;;;;;;;2107125;28;19920;-47
2022/01/17 05:13:58;;;;;;;;;;;;;;;;;;2105753;28;19920;-46
2022/01/17 05:14:59;;;;;;;;;;;;;;;;;;2106784;28;20011;-47
2022/01/17 05:16:08;;;;;;;;;;;;;;;;;;2104944;28;20398;-47
2022/01/17 05:17:23;;;;;;;;;;;;;;;;;;2115202;28;19924;-49
2022/01/17 05:19:47;;;;;;;;;;;;;;;;;;2112916;28;20083;-48
2022/01/17 05:19:48;;;;;;;;;;;;;;;;;;2106580;28;19996;-49
2022/01/17 05:20:50;;;;;;;;;;;;;;;;;;2106647;28;19924;-49
2022/01/17 05:21:50;;;;;;;;;;;;;;;;;;2107518;28;20022;-49
2022/01/17 05:22:51;;;;;;;;;;;;;;;;;;2115039;28;19926;-48
2022/01/17 05:23:52;;;;;;;;;;;;;;;;;;2112338;28;19919;-48
2022/01/17 05:24:53;;;;;;;;;;;;;;;;;;2105316;28;20282;-48
2022/01/17 05:25:54;;;;;;;;;;;;;;;;;;2098293;28;19970;-49
2022/01/17 05:26:54;;;;;;;;;;;;;;;;;;2099010;28;19924;-48
2022/01/17 05:27:55;;;;;;;;;;;;;;;;;;2100808;28;19969;-49
2022/01/17 05:28:56;;;;;;;;;;;;;;;;;;2098281;28;20285;-49
2022/01/17 05:29:57;;;;;;;;;;;;;;;;;;2100633;28;19920;-48
2022/01/17 05:30:58;;;;;;;;;;;;;;;;;;2105353;28;19927;-49
2022/01/17 05:31:59;;;;;;;;;;;;;;;;;;2106523;28;20466;-49
2022/01/17 05:33:00;;;;;;;;;;;;;;;;;;2104721;28;19928;-49
2022/01/17 05:34:00;;;;;;;;;;;;;;;;;;2106655;28;20270;-48
2022/01/17 05:35:01;;;;;;;;;;;;;;;;;;2106591;28;20327;-49
2022/01/17 05:36:02;;;;;;;;;;;;;;;;;;2106542;28;19919;-49
2022/01/17 05:37:03;;;;;;;;;;;;;;;;;;2115105;28;19919;-48
2022/01/17 05:38:04;;;;;;;;;;;;;;;;;;2111451;28;20303;-50
2022/01/17 05:39:04;;;;;;;;;;;;;;;;;;2110299;28;19949;-50
2022/01/17 05:40:05;;;;;;;;;;;;;;;;;;2112796;28;19945;-50
2022/01/17 05:41:06;;;;;;;;;;;;;;;;;;2106891;28;19969;-47
2022/01/17 05:42:08;;;;;;;;;;;;;;;;;;2105094;28;19927;-49
2022/01/17 05:43:08;;;;;;;;;;;;;;;;;;2106450;28;20014;-50
2022/01/17 05:44:09;;;;;;;;;;;;;;;;;;2103360;28;20319;-47
2022/01/17 05:45:10;;;;;;;;;;;;;;;;;;2114789;28;19920;-47
2022/01/17 05:46:11;;;;;;;;;;;;;;;;;;2114817;28;19919;-47
2022/01/17 05:47:12;;;;;;;;;;;;;;;;;;2104666;28;20368;-46
2022/01/17 05:48:13;;;;;;;;;;;;;;;;;;2098151;28;19927;-47
2022/01/17 05:49:14;;;;;;;;;;;;;;;;;;2097668;28;19927;-50
2022/01/17 05:50:14;;;;;;;;;;;;;;;;;;2101975;28;19942;-47
2022/01/17 05:51:15;;;;;;;;;;;;;;;;;;2098098;28;20267;-48
2022/01/17 05:52:16;;;;;;;;;;;;;;;;;;2102252;28;20013;-47
2022/01/17 05:53:18;;;;;;;;;;;;;;;;;;2110374;28;20383;-47
2022/01/17 05:54:18;;;;;;;;;;;;;;;;;;2111487;28;19920;-47
2022/01/17 05:55:23;;;;;;;;;;;;;;;;;;2103061;28;19999;-47
2022/01/17 05:56:24;;;;;;;;;;;;;;;;;;2114051;28;19920;-47
2022/01/17 05:57:25;;;;;;;;;;;;;;;;;;2114956;28;19959;-48
2022/01/17 05:58:25;;;;;;;;;;;;;;;;;;2106591;28;19943;-48
2022/01/17 05:59:26;;;;;;;;;;;;;;;;;;2098115;28;19921;-48
2022/01/17 06:00:27;;;;;;;;;;;;;;;;;;2098136;28;20011;-49
2022/01/17 06:01:28;;;;;;;;;;;;;;;;;;2103442;28;20301;-50
2022/01/17 06:02:29;;;;;;;;;;;;;;;;;;2106379;28;19974;-48
2022/01/17 06:03:31;;;;;;;;;;;;;;;;;;2105893;28;19923;-47
2022/01/17 06:04:33;;;;;;;;;;;;;;;;;;2110549;28;19958;-46
2022/01/17 06:05:33;;;;;;;;;;;;;;;;;;2114977;28;20395;-47
2022/01/17 06:06:34;;;;;;;;;;;;;;;;;;2111997;28;19928;-46
2022/01/17 06:07:35;;;;;;;;;;;;;;;;;;2105205;28;19927;-44
2022/01/17 06:08:37;;;;;;;;;;;;;;;;;;2106519;28;19969;-44
2022/01/17 06:09:38;;;;;;;;;;;;;;;;;;2104276;28;20495;-44
2022/01/17 06:10:39;;;;;;;;;;;;;;;;;;2114377;28;19943;-44
2022/01/17 06:11:40;;;;;;;;;;;;;;;;;;2114627;28;19927;-44
2022/01/17 06:12:41;;;;;;;;;;;;;;;;;;2107194;28;20338;-44
2022/01/17 06:13:44;;;;;;;;;;;;;;;;;;2097951;28;19928;-45
2022/01/17 06:14:45;;;;;;;;;;;;;;;;;;2097501;28;20441;-44
2022/01/17 06:15:45;;;;;;;;;;;;;;;;;;2101701;28;19927;-44
2022/01/17 06:16:46;;;;;;;;;;;;;;;;;;2098054;28;19970;-45
2022/01/17 06:17:47;;;;;;;;;;;;;;;;;;2097745;28;20054;-44
2022/01/17 06:18:48;;;;;;;;;;;;;;;;;;2101430;28;20324;-44
2022/01/17 06:19:49;;;;;;;;;;;;;;;;;;2098022;28;19924;-45
2022/01/17 06:20:49;;;;;;;;;;;;;;;;;;2100678;28;19920;-44
2022/01/17 06:21:50;;;;;;;;;;;;;;;;;;2105972;28;19927;-44
2022/01/17 06:22:51;;;;;;;;;;;;;;;;;;2106402;28;19920;-45
2022/01/17 06:23:52;;;;;;;;;;;;;;;;;;2103896;28;19936;-43
2022/01/17 06:24:53;;;;;;;;;;;;;;;;;;2105909;28;20254;-44
2022/01/17 06:25:54;;;;;;;;;;;;;;;;;;2106518;28;20294;-45
2022/01/17 06:26:55;;;;;;;;;;;;;;;;;;2105000;28;20276;-45
2022/01/17 06:27:55;;;;;;;;;;;;;;;;;;2114738;28;19923;-46
2022/01/17 06:28:56;;;;;;;;;;;;;;;;;;2113681;28;19927;-46
2022/01/17 06:30:00;;;;;;;;;;;;;;;;;;2106156;28;19920;-46
2022/01/17 06:31:01;;;;;;;;;;;;;;;;;;2106186;28;19969;-46
2022/01/17 06:32:04;;;;;;;;;;;;;;;;;;2105360;28;19920;-45
2022/01/17 06:33:25;;;;;;;;;;;;;;;;;;2105991;28;19928;-46
2022/01/17 06:34:26;;;;;;;;;;;;;;;;;;2106168;28;19920;-46
2022/01/17 06:35:26;;;;;;;;;;;;;;;;;;2105174;28;19924;-47
2022/01/17 06:36:27;;;;;;;;;;;;;;;;;;2106056;28;20296;-46
2022/01/17 06:37:28;;;;;;;;;;;;;;;;;;2105720;28;20339;-44
2022/01/17 06:38:29;;;;;;;;;;;;;;;;;;2105637;28;19974;-44
2022/01/17 06:39:30;;;;;;;;;;;;;;;;;;2106372;28;20380;-45
2022/01/17 06:40:31;;;;;;;;;;;;;;;;;;2106240;28;19923;-47
2022/01/17 06:41:32;;;;;;;;;;;;;;;;;;2112055;28;20361;-44
2022/01/17 06:42:33;;;;;;;;;;;;;;;;;;2114471;28;19969;-44
2022/01/17 06:43:34;;;;;;;;;;;;;;;;;;2108514;28;19935;-44
2022/01/17 06:44:35;;;;;;;;;;;;;;;;;;2106176;28;19920;-44
2022/01/17 06:45:36;;;;;;;;;;;;;;;;;;2107401;28;20365;-44
2022/01/17 06:46:37;;;;;;;;;;;;;;;;;;2104917;28;19920;-45
2022/01/17 06:47:37;;;;;;;;;;;;;;;;;;2099722;28;19920;-44
2022/01/17 06:48:38;;;;;;;;;;;;;;;;;;2106637;28;20262;-44
2022/01/17 06:49:39;;;;;;;;;;;;;;;;;;2106877;28;20365;-44
2022/01/17 06:50:40;;;;;;;;;;;;;;;;;;2111755;28;19920;-45
2022/01/17 06:51:41;;;;;;;;;;;;;;;;;;2107145;28;20368;-44
2022/01/17 06:52:41;;;;;;;;;;;;;;;;;;2107020;28;19919;-45
2022/01/17 06:53:42;;;;;;;;;;;;;;;;;;2107646;28;20426;-46
2022/01/17 06:54:43;;;;;;;;;;;;;;;;;;2107988;28;20407;-44
2022/01/17 06:55:44;;;;;;;;;;;;;;;;;;2106272;28;19919;-47
2022/01/17 06:56:45;;;;;;;;;;;;;;;;;;2107500;28;19920;-45
2022/01/17 06:57:46;;;;;;;;;;;;;;;;;;2104312;28;19980;-45
2022/01/17 06:58:46;;;;;;;;;;;;;;;;;;2099420;28;20167;-46
2022/01/17 06:59:47;;;;;;;;;;;;;;;;;;2099183;28;19920;-45
2022/01/17 07:00:48;;;;;;;;;;;;;;;;;;2106183;28;19973;-45
2022/01/17 07:01:49;;;;;;;;;;;;;;;;;;2099212;28;19924;-46
2022/01/17 07:02:50;;;;;;;;;;;;;;;;;;2100191;28;19920;-45
2022/01/17 07:03:51;;;;;;;;;;;;;;;;;;2103038;28;19974;-51
2022/01/17 07:04:52;;;;;;;;;;;;;;;;;;2099273;28;19947;-48
2022/01/17 07:05:53;;;;;;;;;;;;;;;;;;2101907;28;19920;-47
2022/01/17 07:06:54;;;;;;;;;;;;;;;;;;2113401;28;19920;-47
2022/01/17 07:07:56;;;;;;;;;;;;;;;;;;2115918;28;19966;-47
2022/01/17 07:08:57;;;;;;;;;;;;;;;;;;2108186;28;19930;-47
2022/01/17 07:09:58;;;;;;;;;;;;;;;;;;2099286;28;19928;-47